Time,TemperatureF,DewpointF,PressureIn,WindDirection,WindDirectionDegrees,WindSpeedMPH,WindSpeedGustMPH,Humidity,HourlyPrecipIn,Conditions,Clouds,dailyrainin,SoftwareType,DateUTC
2013-09-13 07:39:00,-1.3,-17.5,29.06,North,0,0.0,0.0,45,0.00,,---,0.00,VWS V14.01,2013-09-13 11:39:00,
2013-09-13 07:41:00,-1.3,-17.5,29.06,North,0,0.0,0.0,45,0.00,,---,0.00,VWS V14.01,2013-09-13 11:41:00,
2013-09-13 07:42:00,-1.3,-17.5,29.06,North,0,0.0,0.0,45,0.00,,---,0.00,VWS V14.01,2013-09-13 11:42:00,
2013-09-13 07:47:00,-1.5,-17.6,29.06,North,0,0.0,0.0,45,0.00,,---,0.00,VWS V14.01,2013-09-13 11:47:00,
2013-09-13 07:48:00,-1.7,-17.8,29.06,North,0,0.0,0.0,45,0.00,,---,0.00,VWS V14.01,2013-09-13 11:48:00,
2013-09-13 07:53:00,-1.8,-18.0,29.06,North,0,0.0,0.0,45,0.00,,---,0.00,VWS V14.01,2013-09-13 11:53:00,
2013-09-13 07:57:00,-2.0,-18.1,29.06,North,0,0.0,0.0,45,0.00,,---,0.00,VWS V14.01,2013-09-13 11:57:00,
2013-09-13 07:59:00,-2.0,-18.1,29.06,North,0,0.0,0.0,45,0.00,,---,0.00,VWS V14.01,2013-09-13 11:59:00,
2013-09-13 08:04:00,-2.2,-18.3,29.06,North,0,0.0,0.0,45,0.00,,---,0.00,VWS V14.01,2013-09-13 12:04:00,
2013-09-13 08:09:00,-1.8,-18.0,29.06,North,0,0.0,0.0,45,0.00,,---,0.00,VWS V14.01,2013-09-13 12:09:00,
2013-09-13 08:14:00,-1.7,-17.8,29.06,North,0,0.0,0.0,45,0.00,,---,0.00,VWS V14.01,2013-09-13 12:14:00,
2013-09-13 08:19:00,-1.3,-17.5,29.06,North,0,0.0,0.0,45,0.00,,---,0.00,VWS V14.01,2013-09-13 12:19:00,
2013-09-13 08:24:00,-1.1,-17.3,29.06,North,0,0.0,0.0,45,0.00,,---,0.00,VWS V14.01,2013-09-13 12:24:00,
2013-09-13 08:29:00,-0.9,-17.1,29.06,North,0,0.0,0.0,45,0.00,,---,0.00,VWS V14.01,2013-09-13 12:29:00,
2013-09-13 08:34:00,0.3,-16.0,29.06,North,0,0.0,0.0,45,0.00,,---,0.00,VWS V14.01,2013-09-13 12:34:00,
2013-09-13 08:39:00,17.2,5.0,29.09,North,0,0.0,0.0,58,0.00,,---,0.00,VWS V14.01,2013-09-13 12:39:00,
2013-09-13 08:44:00,15.4,5.1,29.09,North,0,0.0,0.0,63,0.00,,---,0.00,VWS V14.01,2013-09-13 12:44:00,
2013-09-13 08:49:00,13.5,2.9,29.09,North,0,0.0,0.0,62,0.00,,---,0.00,VWS V14.01,2013-09-13 12:49:00,
2013-09-13 08:54:00,11.7,1.2,29.06,North,0,0.0,0.0,62,0.00,,---,0.00,VWS V14.01,2013-09-13 12:54:00,
2013-09-13 09:00:00,10.0,-0.4,29.06,North,0,0.0,0.0,62,0.00,,---,0.00,VWS V14.01,2013-09-13 13:00:00,
2013-09-13 09:06:00,7.9,-2.4,29.06,North,0,0.0,0.0,62,0.00,,---,0.00,VWS V14.01,2013-09-13 13:06:00,
2013-09-13 09:11:00,6.6,-3.6,29.06,North,0,0.0,0.0,62,0.00,,---,0.00,VWS V14.01,2013-09-13 13:11:00,
2013-09-13 09:16:00,6.1,-4.1,29.06,North,0,0.0,0.0,62,0.00,,---,0.00,VWS V14.01,2013-09-13 13:16:00,
2013-09-13 09:21:00,5.0,-5.2,29.06,North,0,0.0,0.0,62,0.00,,---,0.00,VWS V14.01,2013-09-13 13:21:00,
2013-09-13 09:26:00,3.9,-6.2,29.06,North,0,0.0,0.0,62,0.00,,---,0.00,VWS V14.01,2013-09-13 13:26:00,
2013-09-13 09:31:00,3.0,-7.0,29.06,North,0,0.0,0.0,62,0.00,,---,0.00,VWS V14.01,2013-09-13 13:31:00,
2013-09-13 09:36:00,2.5,-7.6,29.06,North,0,0.0,0.0,62,0.00,,---,0.00,VWS V14.01,2013-09-13 13:36:00,
2013-09-13 09:42:00,1.6,-8.4,29.06,North,0,0.0,0.0,62,0.00,,---,0.00,VWS V14.01,2013-09-13 13:42:00,
2013-09-13 09:47:00,1.0,-8.9,29.06,North,0,0.0,0.0,62,0.00,,---,0.00,VWS V14.01,2013-09-13 13:47:00,
2013-09-13 09:52:00,0.7,-9.3,29.06,North,0,0.0,0.0,62,0.00,,---,0.00,VWS V14.01,2013-09-13 13:52:00,
2013-09-13 09:57:00,0.1,-9.8,29.06,North,0,0.0,0.0,62,0.00,,---,0.00,VWS V14.01,2013-09-13 13:57:00,
2013-09-13 10:02:00,-0.2,-10.1,29.06,North,0,0.0,0.0,62,0.00,,---,0.00,VWS V14.01,2013-09-13 14:02:00,
2013-09-13 10:07:00,-0.6,-10.5,29.06,North,0,0.0,0.0,62,0.00,,---,0.00,VWS V14.01,2013-09-13 14:07:00,
2013-09-13 10:12:00,-0.9,-10.8,29.06,North,0,0.0,0.0,62,0.00,,---,0.00,VWS V14.01,2013-09-13 14:12:00,
2013-09-13 10:17:00,-1.3,-11.1,29.06,North,0,0.0,0.0,62,0.00,,---,0.00,VWS V14.01,2013-09-13 14:17:00,
2013-09-13 10:22:00,-1.5,-11.3,29.09,North,0,0.0,0.0,62,0.00,,---,0.00,VWS V14.01,2013-09-13 14:22:00,
2013-09-13 10:27:00,-1.8,-11.7,29.09,North,0,0.0,0.0,62,0.00,,---,0.00,VWS V14.01,2013-09-13 14:27:00,
2013-09-13 10:32:00,-1.8,-11.7,29.09,North,0,0.0,0.0,62,0.00,,---,0.00,VWS V14.01,2013-09-13 14:32:00,
2013-09-13 10:37:00,-2.2,-12.0,29.09,North,0,0.0,0.0,62,0.00,,---,0.00,VWS V14.01,2013-09-13 14:37:00,
2013-09-13 10:42:00,-2.4,-12.2,29.09,North,0,0.0,0.0,62,0.00,,---,0.00,VWS V14.01,2013-09-13 14:42:00,
2013-09-13 10:47:00,-2.6,-12.4,29.09,North,0,0.0,0.0,62,0.00,,---,0.00,VWS V14.01,2013-09-13 14:47:00,
2013-09-13 10:52:00,-2.7,-12.5,29.09,North,0,0.0,0.0,62,0.00,,---,0.00,VWS V14.01,2013-09-13 14:52:00,
2013-09-13 10:57:00,-2.9,-12.7,29.09,North,0,0.0,0.0,62,0.00,,---,0.00,VWS V14.01,2013-09-13 14:57:00,
2013-09-13 11:02:00,-3.1,-12.9,29.09,North,0,0.0,0.0,62,0.00,,---,0.00,VWS V14.01,2013-09-13 15:02:00,
2013-09-13 11:07:00,-3.1,-12.9,29.09,North,0,0.0,0.0,62,0.00,,---,0.00,VWS V14.01,2013-09-13 15:07:00,
2013-09-13 11:12:00,-3.5,-13.2,29.09,North,0,0.0,0.0,62,0.00,,---,0.00,VWS V14.01,2013-09-13 15:12:00,
2013-09-13 11:17:00,-3.5,-13.2,29.09,North,0,0.0,0.0,62,0.00,,---,0.00,VWS V14.01,2013-09-13 15:17:00,
2013-09-13 11:22:00,-3.6,-13.4,29.09,North,0,0.0,0.0,62,0.00,,---,0.00,VWS V14.01,2013-09-13 15:22:00,
2013-09-13 11:28:00,-3.8,-13.6,29.09,North,0,0.0,0.0,62,0.00,,---,0.00,VWS V14.01,2013-09-13 15:28:00,
2013-09-13 11:33:00,-3.8,-13.6,29.09,North,0,0.0,0.0,62,0.00,,---,0.00,VWS V14.01,2013-09-13 15:33:00,
2013-09-13 11:38:00,-4.0,-13.7,29.09,North,0,0.0,0.0,62,0.00,,---,0.00,VWS V14.01,2013-09-13 15:38:00,
2013-09-13 11:43:00,-3.8,-13.6,29.09,North,0,0.0,0.0,62,0.00,,---,0.00,VWS V14.01,2013-09-13 15:43:00,
2013-09-13 11:48:00,-3.8,-13.6,29.09,North,0,0.0,0.0,62,0.00,,---,0.00,VWS V14.01,2013-09-13 15:48:00,
2013-09-13 11:53:00,-3.5,-13.2,29.09,North,0,0.0,0.0,62,0.00,,---,0.00,VWS V14.01,2013-09-13 15:53:00,
2013-09-13 11:59:00,-3.1,-12.9,29.09,North,0,0.0,0.0,62,0.00,,---,0.00,VWS V14.01,2013-09-13 15:59:00,
2013-09-13 12:05:00,-2.7,-12.5,29.09,North,0,0.0,0.0,62,0.00,,---,0.00,VWS V14.01,2013-09-13 16:05:00,
2013-09-13 12:10:00,-2.2,-12.0,29.09,North,0,0.0,0.0,62,0.00,,---,0.00,VWS V14.01,2013-09-13 16:10:00,
2013-09-13 12:15:00,-1.8,-11.7,29.09,North,0,0.0,0.0,62,0.00,,---,0.00,VWS V14.01,2013-09-13 16:15:00,
2013-09-13 12:20:00,-1.7,-11.5,29.09,North,0,0.0,0.0,62,0.00,,---,0.00,VWS V14.01,2013-09-13 16:20:00,
2013-09-13 12:25:00,-1.3,-11.1,29.09,North,0,0.0,0.0,62,0.00,,---,0.00,VWS V14.01,2013-09-13 16:25:00,
2013-09-13 12:30:00,1.6,-8.4,29.09,North,0,0.0,0.0,62,0.00,,---,0.00,VWS V14.01,2013-09-13 16:30:00,
2013-09-13 12:35:00,1.6,-8.4,29.09,North,0,0.0,0.0,62,0.00,,---,0.00,VWS V14.01,2013-09-13 16:35:00,
2013-09-13 12:40:00,1.2,-8.8,29.09,North,0,0.0,0.0,62,0.00,,---,0.00,VWS V14.01,2013-09-13 16:40:00,
2013-09-13 12:45:00,0.3,-9.6,29.09,North,0,0.0,0.0,62,0.00,,---,0.00,VWS V14.01,2013-09-13 16:45:00,
2013-09-13 12:50:00,0.0,-9.9,29.09,North,0,0.0,0.0,62,0.00,,---,0.00,VWS V14.01,2013-09-13 16:50:00,
2013-09-13 12:56:00,-0.6,-10.5,29.09,North,0,0.0,0.0,62,0.00,,---,0.00,VWS V14.01,2013-09-13 16:56:00,
2013-09-13 13:01:00,1.8,-8.2,29.09,North,0,0.0,0.0,62,0.00,,---,0.00,VWS V14.01,2013-09-13 17:01:00,
2013-09-13 13:06:00,1.2,-8.8,29.09,North,0,0.0,0.0,62,0.00,,---,0.00,VWS V14.01,2013-09-13 17:06:00,
2013-09-13 13:11:00,0.7,-9.3,29.09,North,0,0.0,0.0,62,0.00,,---,0.00,VWS V14.01,2013-09-13 17:11:00,
2013-09-13 13:16:00,0.0,-9.9,29.09,North,0,0.0,0.0,62,0.00,,---,0.00,VWS V14.01,2013-09-13 17:16:00,
2013-09-13 13:22:00,-0.9,-10.8,29.09,North,0,0.0,0.0,62,0.00,,---,0.00,VWS V14.01,2013-09-13 17:22:00,
2013-09-13 13:27:00,-1.1,-11.0,29.09,North,0,0.0,0.0,62,0.00,,---,0.00,VWS V14.01,2013-09-13 17:27:00,
2013-09-13 13:32:00,-1.3,-11.1,29.09,North,0,0.0,0.0,62,0.00,,---,0.00,VWS V14.01,2013-09-13 17:32:00,
2013-09-13 13:37:00,-1.8,-11.7,29.06,North,0,0.0,0.0,62,0.00,,---,0.00,VWS V14.01,2013-09-13 17:37:00,
2013-09-13 13:42:00,-1.8,-11.7,29.06,North,0,0.0,0.0,62,0.00,,---,0.00,VWS V14.01,2013-09-13 17:42:00,
2013-09-13 13:47:00,-2.2,-12.0,29.06,North,0,0.0,0.0,62,0.00,,---,0.00,VWS V14.01,2013-09-13 17:47:00,
2013-09-13 13:53:00,-2.6,-12.4,29.06,North,0,0.0,0.0,62,0.00,,---,0.00,VWS V14.01,2013-09-13 17:53:00,
2013-09-13 13:58:00,-2.6,-12.4,29.06,North,0,0.0,0.0,62,0.00,,---,0.00,VWS V14.01,2013-09-13 17:58:00,
2013-09-13 14:03:00,-2.6,-12.4,29.06,North,0,0.0,0.0,62,0.00,,---,0.00,VWS V14.01,2013-09-13 18:03:00,
2013-09-13 14:08:00,-2.4,-12.2,29.06,North,0,0.0,0.0,62,0.00,,---,0.00,VWS V14.01,2013-09-13 18:08:00,
2013-09-13 14:13:00,-2.2,-12.0,29.06,North,0,0.0,0.0,62,0.00,,---,0.00,VWS V14.01,2013-09-13 18:13:00,
2013-09-13 14:18:00,-1.8,-11.7,29.06,North,0,0.0,0.0,62,0.00,,---,0.00,VWS V14.01,2013-09-13 18:18:00,
2013-09-13 14:23:00,-1.5,-11.3,29.06,North,0,0.0,0.0,62,0.00,,---,0.00,VWS V14.01,2013-09-13 18:23:00,
2013-09-13 14:28:00,-1.3,-11.1,29.06,North,0,0.0,0.0,62,0.00,,---,0.00,VWS V14.01,2013-09-13 18:28:00,
2013-09-13 14:33:00,-0.9,-10.8,29.06,North,0,0.0,0.0,62,0.00,,---,0.00,VWS V14.01,2013-09-13 18:33:00,
2013-09-13 14:38:00,-0.6,-10.5,29.06,North,0,0.0,0.0,62,0.00,,---,0.00,VWS V14.01,2013-09-13 18:38:00,
2013-09-13 14:43:00,-0.2,-10.1,29.06,North,0,0.0,0.0,62,0.00,,---,0.00,VWS V14.01,2013-09-13 18:43:00,
2013-09-13 14:49:00,0.3,-9.6,29.06,North,0,0.0,0.0,62,0.00,,---,0.00,VWS V14.01,2013-09-13 18:49:00,
2013-09-13 14:54:00,0.7,-9.3,29.06,North,0,0.0,0.0,62,0.00,,---,0.00,VWS V14.01,2013-09-13 18:54:00,
2013-09-13 14:59:00,0.9,-9.1,29.06,North,0,0.0,0.0,62,0.00,,---,0.00,VWS V14.01,2013-09-13 18:59:00,
2013-09-13 15:04:00,1.2,-8.8,29.06,North,0,0.0,0.0,62,0.00,,---,0.00,VWS V14.01,2013-09-13 19:04:00,
2013-09-13 15:09:00,1.6,-8.4,29.06,North,0,0.0,0.0,62,0.00,,---,0.00,VWS V14.01,2013-09-13 19:09:00,
2013-09-13 15:14:00,1.8,-8.2,29.06,North,0,0.0,0.0,62,0.00,,---,0.00,VWS V14.01,2013-09-13 19:14:00,
2013-09-13 15:19:00,2.1,-7.9,29.06,North,0,0.0,0.0,62,0.00,,---,0.00,VWS V14.01,2013-09-13 19:19:00,
2013-09-13 15:24:00,2.5,-7.6,29.06,North,0,0.0,0.0,62,0.00,,---,0.00,VWS V14.01,2013-09-13 19:24:00,
2013-09-13 15:29:00,2.7,-7.4,29.06,North,0,0.0,0.0,62,0.00,,---,0.00,VWS V14.01,2013-09-13 19:29:00,
2013-09-13 15:34:00,3.0,-7.0,29.06,North,0,0.0,0.0,62,0.00,,---,0.00,VWS V14.01,2013-09-13 19:34:00,
2013-09-13 15:39:00,3.2,-6.9,29.06,North,0,0.0,0.0,62,0.00,,---,0.00,VWS V14.01,2013-09-13 19:39:00,
2013-09-13 15:44:00,3.4,-6.7,29.06,North,0,0.0,0.0,62,0.00,,---,0.00,VWS V14.01,2013-09-13 19:44:00,
2013-09-13 15:49:00,3.6,-6.5,29.06,North,0,0.0,0.0,62,0.00,,---,0.00,VWS V14.01,2013-09-13 19:49:00,
2013-09-13 15:54:00,3.6,-6.5,29.06,North,0,0.0,0.0,62,0.00,,---,0.00,VWS V14.01,2013-09-13 19:54:00,
2013-09-13 15:59:00,12.6,2.0,29.06,North,0,0.0,0.0,62,0.00,,---,0.00,VWS V14.01,2013-09-13 19:59:00,
2013-09-13 16:04:00,16.7,6.7,29.06,North,0,0.0,0.0,64,0.00,,---,0.00,VWS V14.01,2013-09-13 20:04:00,
2013-09-13 16:09:00,14.7,5.4,29.06,North,0,0.0,0.0,66,0.00,,---,0.00,VWS V14.01,2013-09-13 20:09:00,
2013-09-13 16:14:00,13.3,4.1,29.06,North,0,0.0,0.0,66,0.00,,---,0.00,VWS V14.01,2013-09-13 20:14:00,
2013-09-13 16:19:00,11.5,2.3,29.06,North,0,0.0,0.0,66,0.00,,---,0.00,VWS V14.01,2013-09-13 20:19:00,
2013-09-13 16:24:00,9.7,0.6,29.09,North,0,0.0,0.0,66,0.00,,---,0.00,VWS V14.01,2013-09-13 20:24:00,
2013-09-13 16:29:00,8.2,-0.8,29.09,North,0,0.0,0.0,66,0.00,,---,0.00,VWS V14.01,2013-09-13 20:29:00,